sensor_id;sensor_type;location;lat;lon;timestamp;P1;durP1;ratioP1;P2;durP2;ratioP2
25653;SDS011;13511;48.622;9.230;2023-02-28T00:00:12;8.30;;;7.55;;
25653;SDS011;13511;48.622;9.230;2023-02-28T00:02:43;7.72;;;7.22;;
25653;SDS011;13511;48.622;9.230;2023-02-28T00:05:10;8.27;;;7.43;;
25653;SDS011;13511;48.622;9.230;2023-02-28T00:07:36;7.97;;;7.32;;
25653;SDS011;13511;48.622;9.230;2023-02-28T00:10:03;7.30;;;6.78;;
25653;SDS011;13511;48.622;9.230;2023-02-28T00:12:29;8.25;;;7.60;;
25653;SDS011;13511;48.622;9.230;2023-02-28T00:14:55;8.35;;;7.63;;
25653;SDS011;13511;48.622;9.230;2023-02-28T00:17:21;8.93;;;8.15;;
25653;SDS011;13511;48.622;9.230;2023-02-28T00:19:48;8.35;;;7.75;;
25653;SDS011;13511;48.622;9.230;2023-02-28T00:22:14;8.30;;;7.80;;
25653;SDS011;13511;48.622;9.230;2023-02-28T00:24:40;8.05;;;7.55;;
25653;SDS011;13511;48.622;9.230;2023-02-28T00:27:06;8.07;;;7.43;;
25653;SDS011;13511;48.622;9.230;2023-02-28T00:29:32;9.25;;;7.57;;
25653;SDS011;13511;48.622;9.230;2023-02-28T00:31:58;7.53;;;7.13;;
25653;SDS011;13511;48.622;9.230;2023-02-28T00:34:24;7.60;;;7.00;;
25653;SDS011;13511;48.622;9.230;2023-02-28T00:36:50;7.70;;;7.20;;
25653;SDS011;13511;48.622;9.230;2023-02-28T00:39:16;8.43;;;7.63;;
25653;SDS011;13511;48.622;9.230;2023-02-28T00:41:42;7.97;;;7.38;;
25653;SDS011;13511;48.622;9.230;2023-02-28T00:44:08;8.02;;;7.25;;
25653;SDS011;13511;48.622;9.230;2023-02-28T00:46:34;7.88;;;7.13;;
25653;SDS011;13511;48.622;9.230;2023-02-28T00:49:00;7.85;;;7.20;;
25653;SDS011;13511;48.622;9.230;2023-02-28T00:51:26;8.52;;;7.72;;
25653;SDS011;13511;48.622;9.230;2023-02-28T00:53:52;7.78;;;7.00;;
25653;SDS011;13511;48.622;9.230;2023-02-28T00:56:19;8.38;;;7.65;;
25653;SDS011;13511;48.622;9.230;2023-02-28T00:58:45;8.27;;;7.68;;
25653;SDS011;13511;48.622;9.230;2023-02-28T01:01:11;8.27;;;7.50;;
25653;SDS011;13511;48.622;9.230;2023-02-28T01:03:37;8.13;;;7.32;;
25653;SDS011;13511;48.622;9.230;2023-02-28T01:06:03;7.78;;;7.15;;
25653;SDS011;13511;48.622;9.230;2023-02-28T01:08:30;7.63;;;7.03;;
25653;SDS011;13511;48.622;9.230;2023-02-28T01:10:56;8.32;;;7.65;;
25653;SDS011;13511;48.622;9.230;2023-02-28T01:13:22;8.85;;;8.07;;
25653;SDS011;13511;48.622;9.230;2023-02-28T01:15:49;9.02;;;8.25;;
25653;SDS011;13511;48.622;9.230;2023-02-28T01:18:16;8.18;;;7.68;;
25653;SDS011;13511;48.622;9.230;2023-02-28T01:20:42;8.50;;;7.78;;
25653;SDS011;13511;48.622;9.230;2023-02-28T01:23:08;8.38;;;7.68;;
25653;SDS011;13511;48.622;9.230;2023-02-28T01:25:35;8.55;;;7.82;;
25653;SDS011;13511;48.622;9.230;2023-02-28T01:28:01;8.60;;;7.82;;
25653;SDS011;13511;48.622;9.230;2023-02-28T01:30:27;8.45;;;7.85;;
25653;SDS011;13511;48.622;9.230;2023-02-28T01:32:53;8.40;;;7.80;;
25653;SDS011;13511;48.622;9.230;2023-02-28T01:35:19;8.57;;;7.75;;
25653;SDS011;13511;48.622;9.230;2023-02-28T01:37:45;8.70;;;8.00;;
25653;SDS011;13511;48.622;9.230;2023-02-28T01:40:12;8.50;;;7.93;;
25653;SDS011;13511;48.622;9.230;2023-02-28T01:42:38;8.95;;;8.10;;
25653;SDS011;13511;48.622;9.230;2023-02-28T01:45:25;8.48;;;7.60;;
25653;SDS011;13511;48.622;9.230;2023-02-28T01:47:53;8.43;;;7.82;;
25653;SDS011;13511;48.622;9.230;2023-02-28T01:50:21;9.20;;;8.40;;
25653;SDS011;13511;48.622;9.230;2023-02-28T01:52:48;9.10;;;8.50;;
25653;SDS011;13511;48.622;9.230;2023-02-28T01:55:15;8.07;;;7.47;;
25653;SDS011;13511;48.622;9.230;2023-02-28T01:57:43;8.23;;;7.68;;
25653;SDS011;13511;48.622;9.230;2023-02-28T02:00:12;8.30;;;7.70;;
25653;SDS011;13511;48.622;9.230;2023-02-28T02:02:43;8.55;;;7.85;;
25653;SDS011;13511;48.622;9.230;2023-02-28T02:05:18;8.85;;;8.13;;
25653;SDS011;13511;48.622;9.230;2023-02-28T02:07:46;8.27;;;7.65;;
25653;SDS011;13511;48.622;9.230;2023-02-28T02:10:16;8.55;;;7.85;;
25653;SDS011;13511;48.622;9.230;2023-02-28T02:12:48;9.70;;;8.70;;
25653;SDS011;13511;48.622;9.230;2023-02-28T02:15:29;8.32;;;7.65;;
25653;SDS011;13511;48.622;9.230;2023-02-28T02:17:57;8.18;;;7.57;;
25653;SDS011;13511;48.622;9.230;2023-02-28T02:23:23;9.43;;;8.52;;
25653;SDS011;13511;48.622;9.230;2023-02-28T02:25:56;9.70;;;8.55;;
25653;SDS011;13511;48.622;9.230;2023-02-28T02:28:30;8.65;;;8.00;;
25653;SDS011;13511;48.622;9.230;2023-02-28T02:36:33;9.10;;;8.45;;
25653;SDS011;13511;48.622;9.230;2023-02-28T02:39:44;8.98;;;8.27;;
25653;SDS011;13511;48.622;9.230;2023-02-28T02:41:51;9.20;;;8.32;;
25653;SDS011;13511;48.622;9.230;2023-02-28T02:44:22;8.98;;;8.00;;
25653;SDS011;13511;48.622;9.230;2023-02-28T02:46:51;9.82;;;8.88;;
25653;SDS011;13511;48.622;9.230;2023-02-28T02:49:36;9.77;;;8.27;;
25653;SDS011;13511;48.622;9.230;2023-02-28T02:52:05;10.00;;;9.05;;
25653;SDS011;13511;48.622;9.230;2023-02-28T02:54:35;9.45;;;8.55;;
25653;SDS011;13511;48.622;9.230;2023-02-28T02:57:09;9.30;;;8.50;;
25653;SDS011;13511;48.622;9.230;2023-02-28T02:59:37;9.88;;;8.98;;
25653;SDS011;13511;48.622;9.230;2023-02-28T03:02:05;9.13;;;8.32;;
25653;SDS011;13511;48.622;9.230;2023-02-28T03:04:33;9.85;;;8.52;;
25653;SDS011;13511;48.622;9.230;2023-02-28T03:07:00;8.68;;;8.00;;
25653;SDS011;13511;48.622;9.230;2023-02-28T03:09:26;9.73;;;8.60;;
25653;SDS011;13511;48.622;9.230;2023-02-28T03:11:53;9.65;;;8.70;;
25653;SDS011;13511;48.622;9.230;2023-02-28T03:22:21;9.40;;;8.60;;
25653;SDS011;13511;48.622;9.230;2023-02-28T03:24:50;9.88;;;9.07;;
25653;SDS011;13511;48.622;9.230;2023-02-28T03:29:46;10.23;;;9.43;;
25653;SDS011;13511;48.622;9.230;2023-02-28T03:32:17;10.23;;;9.43;;
25653;SDS011;13511;48.622;9.230;2023-02-28T03:34:48;11.10;;;10.02;;
25653;SDS011;13511;48.622;9.230;2023-02-28T03:37:18;10.50;;;9.70;;
25653;SDS011;13511;48.622;9.230;2023-02-28T03:39:47;10.30;;;9.40;;
25653;SDS011;13511;48.622;9.230;2023-02-28T03:42:18;10.30;;;9.48;;
25653;SDS011;13511;48.622;9.230;2023-02-28T03:44:47;10.45;;;9.27;;
25653;SDS011;13511;48.622;9.230;2023-02-28T03:47:16;9.60;;;9.00;;
25653;SDS011;13511;48.622;9.230;2023-02-28T03:49:45;9.70;;;8.90;;
25653;SDS011;13511;48.622;9.230;2023-02-28T03:52:12;10.68;;;9.30;;
25653;SDS011;13511;48.622;9.230;2023-02-28T03:54:41;10.55;;;9.63;;
25653;SDS011;13511;48.622;9.230;2023-02-28T03:57:13;12.10;;;9.65;;
25653;SDS011;13511;48.622;9.230;2023-02-28T03:59:42;10.02;;;9.13;;
25653;SDS011;13511;48.622;9.230;2023-02-28T04:02:10;10.93;;;10.07;;
25653;SDS011;13511;48.622;9.230;2023-02-28T04:04:36;10.98;;;9.85;;
25653;SDS011;13511;48.622;9.230;2023-02-28T04:07:06;10.15;;;9.35;;
25653;SDS011;13511;48.622;9.230;2023-02-28T04:09:32;9.85;;;8.98;;
25653;SDS011;13511;48.622;9.230;2023-02-28T04:11:58;10.15;;;9.30;;
25653;SDS011;13511;48.622;9.230;2023-02-28T04:14:24;10.68;;;9.57;;
25653;SDS011;13511;48.622;9.230;2023-02-28T04:16:50;10.45;;;9.45;;
25653;SDS011;13511;48.622;9.230;2023-02-28T04:19:17;10.48;;;9.65;;
25653;SDS011;13511;48.622;9.230;2023-02-28T04:21:44;9.95;;;9.15;;
25653;SDS011;13511;48.622;9.230;2023-02-28T04:24:11;9.63;;;9.00;;
25653;SDS011;13511;48.622;9.230;2023-02-28T04:26:39;10.25;;;9.35;;
25653;SDS011;13511;48.622;9.230;2023-02-28T04:29:06;10.57;;;9.68;;
25653;SDS011;13511;48.622;9.230;2023-02-28T04:31:32;10.07;;;9.40;;
25653;SDS011;13511;48.622;9.230;2023-02-28T04:33:59;10.10;;;9.20;;
25653;SDS011;13511;48.622;9.230;2023-02-28T04:36:25;10.77;;;9.77;;
25653;SDS011;13511;48.622;9.230;2023-02-28T04:38:51;10.75;;;9.85;;
25653;SDS011;13511;48.622;9.230;2023-02-28T04:41:18;9.85;;;9.05;;
25653;SDS011;13511;48.622;9.230;2023-02-28T04:43:44;9.43;;;8.75;;
25653;SDS011;13511;48.622;9.230;2023-02-28T04:46:10;11.32;;;10.18;;
25653;SDS011;13511;48.622;9.230;2023-02-28T04:48:37;10.32;;;9.52;;
25653;SDS011;13511;48.622;9.230;2023-02-28T04:51:04;10.63;;;9.82;;
25653;SDS011;13511;48.622;9.230;2023-02-28T04:53:31;11.13;;;10.07;;
25653;SDS011;13511;48.622;9.230;2023-02-28T04:55:57;10.93;;;10.07;;
25653;SDS011;13511;48.622;9.230;2023-02-28T04:58:23;14.90;;;10.90;;
25653;SDS011;13511;48.622;9.230;2023-02-28T05:00:50;10.80;;;10.00;;
25653;SDS011;13511;48.622;9.230;2023-02-28T05:03:16;11.77;;;10.70;;
25653;SDS011;13511;48.622;9.230;2023-02-28T05:05:42;12.65;;;11.10;;
25653;SDS011;13511;48.622;9.230;2023-02-28T05:08:08;11.88;;;10.90;;
25653;SDS011;13511;48.622;9.230;2023-02-28T05:10:34;12.30;;;11.10;;
25653;SDS011;13511;48.622;9.230;2023-02-28T05:13:00;12.27;;;10.90;;
25653;SDS011;13511;48.622;9.230;2023-02-28T05:15:26;11.48;;;10.50;;
25653;SDS011;13511;48.622;9.230;2023-02-28T05:17:52;12.80;;;11.60;;
25653;SDS011;13511;48.622;9.230;2023-02-28T05:20:18;12.18;;;11.18;;
25653;SDS011;13511;48.622;9.230;2023-02-28T05:22:46;13.05;;;11.77;;
25653;SDS011;13511;48.622;9.230;2023-02-28T05:25:13;12.40;;;11.20;;
25653;SDS011;13511;48.622;9.230;2023-02-28T05:27:41;13.18;;;11.88;;
25653;SDS011;13511;48.622;9.230;2023-02-28T05:30:07;12.20;;;11.07;;
25653;SDS011;13511;48.622;9.230;2023-02-28T05:32:35;11.82;;;10.80;;
25653;SDS011;13511;48.622;9.230;2023-02-28T05:35:01;12.75;;;11.63;;
25653;SDS011;13511;48.622;9.230;2023-02-28T05:37:27;13.27;;;12.00;;
25653;SDS011;13511;48.622;9.230;2023-02-28T05:39:53;13.55;;;12.10;;
25653;SDS011;13511;48.622;9.230;2023-02-28T05:42:19;12.35;;;11.45;;
25653;SDS011;13511;48.622;9.230;2023-02-28T05:44:45;14.13;;;12.93;;
25653;SDS011;13511;48.622;9.230;2023-02-28T05:47:12;13.18;;;11.98;;
25653;SDS011;13511;48.622;9.230;2023-02-28T05:49:40;14.00;;;12.50;;
25653;SDS011;13511;48.622;9.230;2023-02-28T05:52:06;12.95;;;11.80;;
25653;SDS011;13511;48.622;9.230;2023-02-28T05:54:32;13.30;;;12.20;;
25653;SDS011;13511;48.622;9.230;2023-02-28T05:56:59;13.73;;;12.48;;
25653;SDS011;13511;48.622;9.230;2023-02-28T05:59:25;15.13;;;12.57;;
25653;SDS011;13511;48.622;9.230;2023-02-28T06:01:51;13.73;;;12.52;;
25653;SDS011;13511;48.622;9.230;2023-02-28T06:04:19;13.40;;;12.10;;
25653;SDS011;13511;48.622;9.230;2023-02-28T06:06:46;15.07;;;13.77;;
25653;SDS011;13511;48.622;9.230;2023-02-28T06:09:12;16.77;;;12.38;;
25653;SDS011;13511;48.622;9.230;2023-02-28T06:11:38;14.05;;;12.65;;
25653;SDS011;13511;48.622;9.230;2023-02-28T06:14:04;13.13;;;11.77;;
25653;SDS011;13511;48.622;9.230;2023-02-28T06:16:31;15.30;;;12.07;;
25653;SDS011;13511;48.622;9.230;2023-02-28T06:18:59;13.65;;;12.25;;
25653;SDS011;13511;48.622;9.230;2023-02-28T06:21:25;13.48;;;12.32;;
25653;SDS011;13511;48.622;9.230;2023-02-28T06:23:52;13.32;;;12.23;;
25653;SDS011;13511;48.622;9.230;2023-02-28T06:26:18;14.43;;;12.55;;
25653;SDS011;13511;48.622;9.230;2023-02-28T06:28:44;13.70;;;12.48;;
25653;SDS011;13511;48.622;9.230;2023-02-28T06:31:11;13.77;;;12.57;;
25653;SDS011;13511;48.622;9.230;2023-02-28T06:33:38;15.25;;;13.65;;
25653;SDS011;13511;48.622;9.230;2023-02-28T06:36:05;14.63;;;13.27;;
25653;SDS011;13511;48.622;9.230;2023-02-28T06:38:31;15.30;;;13.68;;
25653;SDS011;13511;48.622;9.230;2023-02-28T06:40:58;15.20;;;13.80;;
25653;SDS011;13511;48.622;9.230;2023-02-28T06:43:25;14.70;;;13.30;;
25653;SDS011;13511;48.622;9.230;2023-02-28T06:45:54;14.85;;;13.40;;
25653;SDS011;13511;48.622;9.230;2023-02-28T06:48:20;13.00;;;11.68;;
25653;SDS011;13511;48.622;9.230;2023-02-28T06:50:46;14.93;;;13.35;;
25653;SDS011;13511;48.622;9.230;2023-02-28T06:53:12;14.13;;;12.93;;
25653;SDS011;13511;48.622;9.230;2023-02-28T06:55:39;15.25;;;13.68;;
25653;SDS011;13511;48.622;9.230;2023-02-28T06:58:05;14.70;;;13.30;;
25653;SDS011;13511;48.622;9.230;2023-02-28T07:00:40;15.32;;;14.02;;
25653;SDS011;13511;48.622;9.230;2023-02-28T07:03:06;14.68;;;13.32;;
25653;SDS011;13511;48.622;9.230;2023-02-28T07:05:34;14.98;;;13.52;;
25653;SDS011;13511;48.622;9.230;2023-02-28T07:08:00;14.93;;;13.52;;
25653;SDS011;13511;48.622;9.230;2023-02-28T07:10:26;17.40;;;13.10;;
25653;SDS011;13511;48.622;9.230;2023-02-28T07:12:52;15.15;;;13.73;;
25653;SDS011;13511;48.622;9.230;2023-02-28T07:15:18;15.07;;;13.63;;
25653;SDS011;13511;48.622;9.230;2023-02-28T07:17:44;15.68;;;14.18;;
25653;SDS011;13511;48.622;9.230;2023-02-28T07:20:10;14.68;;;13.38;;
25653;SDS011;13511;48.622;9.230;2023-02-28T07:22:36;15.90;;;14.38;;
25653;SDS011;13511;48.622;9.230;2023-02-28T07:25:03;15.35;;;13.95;;
25653;SDS011;13511;48.622;9.230;2023-02-28T07:27:29;17.75;;;13.70;;
25653;SDS011;13511;48.622;9.230;2023-02-28T07:29:55;14.63;;;13.27;;
25653;SDS011;13511;48.622;9.230;2023-02-28T07:32:21;15.05;;;13.65;;
25653;SDS011;13511;48.622;9.230;2023-02-28T07:34:47;15.20;;;13.70;;
25653;SDS011;13511;48.622;9.230;2023-02-28T07:37:14;15.32;;;13.77;;
25653;SDS011;13511;48.622;9.230;2023-02-28T07:39:40;15.52;;;14.05;;
25653;SDS011;13511;48.622;9.230;2023-02-28T07:42:07;16.67;;;14.02;;
25653;SDS011;13511;48.622;9.230;2023-02-28T07:44:36;14.90;;;13.40;;
25653;SDS011;13511;48.622;9.230;2023-02-28T07:47:05;16.63;;;13.75;;
25653;SDS011;13511;48.622;9.230;2023-02-28T07:49:31;15.02;;;13.43;;
25653;SDS011;13511;48.622;9.230;2023-02-28T07:51:57;15.80;;;13.82;;
25653;SDS011;13511;48.622;9.230;2023-02-28T07:54:23;15.63;;;14.13;;
25653;SDS011;13511;48.622;9.230;2023-02-28T07:56:49;15.85;;;14.30;;
25653;SDS011;13511;48.622;9.230;2023-02-28T07:59:15;15.13;;;13.63;;
25653;SDS011;13511;48.622;9.230;2023-02-28T08:01:41;15.27;;;13.95;;
25653;SDS011;13511;48.622;9.230;2023-02-28T08:04:09;30.02;;;14.10;;
25653;SDS011;13511;48.622;9.230;2023-02-28T08:06:35;16.65;;;13.57;;
25653;SDS011;13511;48.622;9.230;2023-02-28T08:09:01;16.25;;;14.55;;
25653;SDS011;13511;48.622;9.230;2023-02-28T08:11:27;16.23;;;14.15;;
25653;SDS011;13511;48.622;9.230;2023-02-28T08:13:54;15.20;;;13.70;;
25653;SDS011;13511;48.622;9.230;2023-02-28T08:16:20;14.73;;;13.32;;
25653;SDS011;13511;48.622;9.230;2023-02-28T08:18:50;15.05;;;13.48;;
25653;SDS011;13511;48.622;9.230;2023-02-28T08:21:16;17.42;;;13.35;;
25653;SDS011;13511;48.622;9.230;2023-02-28T08:23:43;15.13;;;13.45;;
25653;SDS011;13511;48.622;9.230;2023-02-28T08:26:09;15.07;;;13.48;;
25653;SDS011;13511;48.622;9.230;2023-02-28T08:28:35;15.55;;;13.93;;
25653;SDS011;13511;48.622;9.230;2023-02-28T08:31:01;15.45;;;13.95;;
25653;SDS011;13511;48.622;9.230;2023-02-28T08:33:32;16.95;;;15.20;;
25653;SDS011;13511;48.622;9.230;2023-02-28T08:35:58;16.58;;;14.95;;
25653;SDS011;13511;48.622;9.230;2023-02-28T08:38:24;16.15;;;14.55;;
25653;SDS011;13511;48.622;9.230;2023-02-28T08:40:56;16.45;;;14.85;;
25653;SDS011;13511;48.622;9.230;2023-02-28T08:43:22;16.10;;;14.57;;
25653;SDS011;13511;48.622;9.230;2023-02-28T08:45:50;15.90;;;14.32;;
25653;SDS011;13511;48.622;9.230;2023-02-28T08:48:16;16.38;;;14.65;;
25653;SDS011;13511;48.622;9.230;2023-02-28T08:50:42;15.88;;;14.30;;
25653;SDS011;13511;48.622;9.230;2023-02-28T08:53:08;16.45;;;14.75;;
25653;SDS011;13511;48.622;9.230;2023-02-28T08:55:34;15.90;;;14.05;;
25653;SDS011;13511;48.622;9.230;2023-02-28T08:58:00;15.68;;;14.10;;
25653;SDS011;13511;48.622;9.230;2023-02-28T09:00:26;15.98;;;14.50;;
25653;SDS011;13511;48.622;9.230;2023-02-28T09:02:52;16.08;;;14.68;;
25653;SDS011;13511;48.622;9.230;2023-02-28T09:05:19;16.80;;;15.07;;
25653;SDS011;13511;48.622;9.230;2023-02-28T09:07:45;15.93;;;14.52;;
25653;SDS011;13511;48.622;9.230;2023-02-28T09:10:11;17.08;;;15.40;;
25653;SDS011;13511;48.622;9.230;2023-02-28T09:12:37;16.30;;;14.70;;
25653;SDS011;13511;48.622;9.230;2023-02-28T09:15:04;16.63;;;14.82;;
25653;SDS011;13511;48.622;9.230;2023-02-28T09:17:30;17.48;;;15.05;;
25653;SDS011;13511;48.622;9.230;2023-02-28T09:19:56;17.80;;;15.93;;
25653;SDS011;13511;48.622;9.230;2023-02-28T09:22:22;22.23;;;15.20;;
25653;SDS011;13511;48.622;9.230;2023-02-28T09:24:48;17.85;;;15.95;;
25653;SDS011;13511;48.622;9.230;2023-02-28T09:27:14;17.73;;;16.02;;
25653;SDS011;13511;48.622;9.230;2023-02-28T09:29:40;17.20;;;15.48;;
25653;SDS011;13511;48.622;9.230;2023-02-28T09:32:06;17.10;;;15.50;;
25653;SDS011;13511;48.622;9.230;2023-02-28T09:34:32;16.98;;;15.38;;
25653;SDS011;13511;48.622;9.230;2023-02-28T09:36:58;16.63;;;15.05;;
25653;SDS011;13511;48.622;9.230;2023-02-28T09:39:24;16.15;;;14.55;;
25653;SDS011;13511;48.622;9.230;2023-02-28T09:41:52;16.02;;;14.32;;
25653;SDS011;13511;48.622;9.230;2023-02-28T09:47:18;16.70;;;14.98;;
25653;SDS011;13511;48.622;9.230;2023-02-28T09:49:44;15.77;;;14.38;;
25653;SDS011;13511;48.622;9.230;2023-02-28T09:52:14;16.25;;;14.68;;
25653;SDS011;13511;48.622;9.230;2023-02-28T09:54:41;20.05;;;15.77;;
25653;SDS011;13511;48.622;9.230;2023-02-28T10:04:58;19.95;;;14.73;;
25653;SDS011;13511;48.622;9.230;2023-02-28T10:07:37;21.73;;;14.88;;
25653;SDS011;13511;48.622;9.230;2023-02-28T10:10:20;21.92;;;16.15;;
25653;SDS011;13511;48.622;9.230;2023-02-28T10:15:16;16.83;;;15.13;;
25653;SDS011;13511;48.622;9.230;2023-02-28T10:17:43;17.25;;;15.38;;
25653;SDS011;13511;48.622;9.230;2023-02-28T10:20:11;16.55;;;14.50;;
25653;SDS011;13511;48.622;9.230;2023-02-28T10:22:44;15.48;;;13.88;;
25653;SDS011;13511;48.622;9.230;2023-02-28T10:25:20;17.13;;;14.55;;
25653;SDS011;13511;48.622;9.230;2023-02-28T10:27:46;17.75;;;15.80;;
25653;SDS011;13511;48.622;9.230;2023-02-28T10:30:12;16.35;;;14.65;;
25653;SDS011;13511;48.622;9.230;2023-02-28T10:32:39;20.80;;;16.70;;
25653;SDS011;13511;48.622;9.230;2023-02-28T10:37:37;17.30;;;15.43;;
25653;SDS011;13511;48.622;9.230;2023-02-28T10:40:04;16.15;;;14.23;;
25653;SDS011;13511;48.622;9.230;2023-02-28T10:42:30;15.95;;;14.35;;
25653;SDS011;13511;48.622;9.230;2023-02-28T10:45:10;16.80;;;15.07;;
25653;SDS011;13511;48.622;9.230;2023-02-28T10:47:40;16.27;;;14.65;;
25653;SDS011;13511;48.622;9.230;2023-02-28T10:50:25;17.23;;;15.43;;
25653;SDS011;13511;48.622;9.230;2023-02-28T10:52:52;16.00;;;14.60;;
25653;SDS011;13511;48.622;9.230;2023-02-28T10:55:23;16.83;;;15.10;;
25653;SDS011;13511;48.622;9.230;2023-02-28T10:57:50;16.40;;;14.52;;
25653;SDS011;13511;48.622;9.230;2023-02-28T11:00:17;18.75;;;15.48;;
25653;SDS011;13511;48.622;9.230;2023-02-28T11:02:44;18.52;;;14.85;;
25653;SDS011;13511;48.622;9.230;2023-02-28T11:08:13;21.48;;;16.67;;
25653;SDS011;13511;48.622;9.230;2023-02-28T11:10:44;18.75;;;14.77;;
25653;SDS011;13511;48.622;9.230;2023-02-28T11:13:17;17.45;;;14.90;;
25653;SDS011;13511;48.622;9.230;2023-02-28T11:15:51;16.42;;;14.70;;
25653;SDS011;13511;48.622;9.230;2023-02-28T11:20:43;17.10;;;15.40;;
25653;SDS011;13511;48.622;9.230;2023-02-28T11:23:14;17.13;;;15.18;;
25653;SDS011;13511;48.622;9.230;2023-02-28T11:25:41;19.02;;;17.08;;
25653;SDS011;13511;48.622;9.230;2023-02-28T11:28:31;16.42;;;14.82;;
25653;SDS011;13511;48.622;9.230;2023-02-28T11:31:02;16.05;;;14.65;;
25653;SDS011;13511;48.622;9.230;2023-02-28T11:33:30;15.55;;;14.13;;
25653;SDS011;13511;48.622;9.230;2023-02-28T11:36:01;15.48;;;14.18;;
25653;SDS011;13511;48.622;9.230;2023-02-28T11:46:07;15.52;;;14.02;;
25653;SDS011;13511;48.622;9.230;2023-02-28T11:48:42;16.25;;;13.68;;
25653;SDS011;13511;48.622;9.230;2023-02-28T11:51:14;16.02;;;14.48;;
25653;SDS011;13511;48.622;9.230;2023-02-28T11:56:28;14.52;;;13.13;;
25653;SDS011;13511;48.622;9.230;2023-02-28T12:03:59;14.82;;;13.52;;
25653;SDS011;13511;48.622;9.230;2023-02-28T12:19:45;14.23;;;12.82;;
25653;SDS011;13511;48.622;9.230;2023-02-28T12:27:19;13.50;;;12.40;;
25653;SDS011;13511;48.622;9.230;2023-02-28T12:29:50;14.90;;;13.68;;
25653;SDS011;13511;48.622;9.230;2023-02-28T12:37:23;16.20;;;14.68;;
25653;SDS011;13511;48.622;9.230;2023-02-28T12:39:51;15.40;;;13.90;;
25653;SDS011;13511;48.622;9.230;2023-02-28T12:42:24;15.30;;;13.90;;
25653;SDS011;13511;48.622;9.230;2023-02-28T12:44:54;14.43;;;13.13;;
25653;SDS011;13511;48.622;9.230;2023-02-28T12:47:22;14.27;;;13.07;;
25653;SDS011;13511;48.622;9.230;2023-02-28T12:49:50;14.05;;;12.90;;
25653;SDS011;13511;48.622;9.230;2023-02-28T12:52:18;15.50;;;14.00;;
25653;SDS011;13511;48.622;9.230;2023-02-28T12:54:49;14.77;;;13.48;;
25653;SDS011;13511;48.622;9.230;2023-02-28T12:57:19;15.45;;;14.05;;
25653;SDS011;13511;48.622;9.230;2023-02-28T12:59:49;14.48;;;13.18;;
25653;SDS011;13511;48.622;9.230;2023-02-28T13:10:09;13.82;;;12.73;;
25653;SDS011;13511;48.622;9.230;2023-02-28T13:12:36;13.75;;;12.55;;
25653;SDS011;13511;48.622;9.230;2023-02-28T13:15:08;14.13;;;12.93;;
25653;SDS011;13511;48.622;9.230;2023-02-28T13:17:38;13.80;;;12.70;;
25653;SDS011;13511;48.622;9.230;2023-02-28T13:20:13;14.77;;;13.50;;
25653;SDS011;13511;48.622;9.230;2023-02-28T13:22:45;14.00;;;12.93;;
25653;SDS011;13511;48.622;9.230;2023-02-28T13:27:55;14.00;;;12.90;;
25653;SDS011;13511;48.622;9.230;2023-02-28T13:35:48;14.73;;;13.20;;
25653;SDS011;13511;48.622;9.230;2023-02-28T13:38:22;14.98;;;13.57;;
25653;SDS011;13511;48.622;9.230;2023-02-28T13:40:48;17.65;;;12.75;;
25653;SDS011;13511;48.622;9.230;2023-02-28T13:43:16;13.73;;;12.60;;
25653;SDS011;13511;48.622;9.230;2023-02-28T13:46:03;13.85;;;12.52;;
25653;SDS011;13511;48.622;9.230;2023-02-28T13:48:29;13.27;;;12.13;;
25653;SDS011;13511;48.622;9.230;2023-02-28T13:50:55;16.27;;;12.60;;
25653;SDS011;13511;48.622;9.230;2023-02-28T13:53:30;13.52;;;12.38;;
25653;SDS011;13511;48.622;9.230;2023-02-28T14:09:14;14.52;;;13.20;;
25653;SDS011;13511;48.622;9.230;2023-02-28T14:11:42;14.95;;;12.88;;
25653;SDS011;13511;48.622;9.230;2023-02-28T14:14:09;15.18;;;12.32;;
25653;SDS011;13511;48.622;9.230;2023-02-28T14:16:55;14.52;;;13.35;;
25653;SDS011;13511;48.622;9.230;2023-02-28T14:19:30;12.43;;;11.43;;
25653;SDS011;13511;48.622;9.230;2023-02-28T14:22:13;13.32;;;12.23;;
25653;SDS011;13511;48.622;9.230;2023-02-28T14:35:00;13.02;;;12.02;;
25653;SDS011;13511;48.622;9.230;2023-02-28T14:37:30;12.80;;;11.80;;
25653;SDS011;13511;48.622;9.230;2023-02-28T14:39:56;13.30;;;12.30;;
25653;SDS011;13511;48.622;9.230;2023-02-28T14:44:55;13.10;;;11.90;;
25653;SDS011;13511;48.622;9.230;2023-02-28T14:47:21;13.63;;;12.40;;
25653;SDS011;13511;48.622;9.230;2023-02-28T14:49:49;13.43;;;12.13;;
25653;SDS011;13511;48.622;9.230;2023-02-28T14:52:17;12.80;;;11.80;;
25653;SDS011;13511;48.622;9.230;2023-02-28T14:54:44;13.45;;;12.35;;
25653;SDS011;13511;48.622;9.230;2023-02-28T14:57:24;15.32;;;13.82;;
25653;SDS011;13511;48.622;9.230;2023-02-28T15:00:09;14.55;;;13.07;;
25653;SDS011;13511;48.622;9.230;2023-02-28T15:02:38;14.35;;;12.90;;
25653;SDS011;13511;48.622;9.230;2023-02-28T15:07:43;12.90;;;11.80;;
25653;SDS011;13511;48.622;9.230;2023-02-28T15:13:06;16.25;;;13.10;;
25653;SDS011;13511;48.622;9.230;2023-02-28T15:18:17;14.77;;;13.27;;
25653;SDS011;13511;48.622;9.230;2023-02-28T15:20:46;13.45;;;12.35;;
25653;SDS011;13511;48.622;9.230;2023-02-28T15:23:12;13.98;;;12.77;;
25653;SDS011;13511;48.622;9.230;2023-02-28T15:25:39;14.25;;;12.93;;
25653;SDS011;13511;48.622;9.230;2023-02-28T15:28:09;14.10;;;13.00;;
25653;SDS011;13511;48.622;9.230;2023-02-28T15:30:38;14.00;;;12.70;;
25653;SDS011;13511;48.622;9.230;2023-02-28T15:33:06;13.38;;;12.27;;
25653;SDS011;13511;48.622;9.230;2023-02-28T15:35:33;12.82;;;11.63;;
25653;SDS011;13511;48.622;9.230;2023-02-28T15:38:04;15.32;;;12.93;;
25653;SDS011;13511;48.622;9.230;2023-02-28T15:41:00;13.32;;;12.23;;
25653;SDS011;13511;48.622;9.230;2023-02-28T15:43:29;13.60;;;12.50;;
25653;SDS011;13511;48.622;9.230;2023-02-28T15:46:08;13.63;;;12.40;;
25653;SDS011;13511;48.622;9.230;2023-02-28T15:48:36;14.68;;;13.20;;
25653;SDS011;13511;48.622;9.230;2023-02-28T15:53:36;13.90;;;12.43;;
25653;SDS011;13511;48.622;9.230;2023-02-28T15:56:03;13.25;;;12.18;;
25653;SDS011;13511;48.622;9.230;2023-02-28T15:58:30;13.57;;;12.38;;
25653;SDS011;13511;48.622;9.230;2023-02-28T16:01:04;14.40;;;13.05;;
25653;SDS011;13511;48.622;9.230;2023-02-28T16:03:38;15.07;;;13.88;;
25653;SDS011;13511;48.622;9.230;2023-02-28T16:08:49;13.75;;;12.65;;
25653;SDS011;13511;48.622;9.230;2023-02-28T16:11:16;15.73;;;14.23;;
25653;SDS011;13511;48.622;9.230;2023-02-28T16:13:42;16.02;;;13.50;;
25653;SDS011;13511;48.622;9.230;2023-02-28T16:16:08;13.93;;;12.82;;
25653;SDS011;13511;48.622;9.230;2023-02-28T16:18:40;14.52;;;13.23;;
25653;SDS011;13511;48.622;9.230;2023-02-28T16:21:06;15.05;;;13.77;;
25653;SDS011;13511;48.622;9.230;2023-02-28T16:23:32;15.30;;;13.32;;
25653;SDS011;13511;48.622;9.230;2023-02-28T16:25:58;14.73;;;13.48;;
25653;SDS011;13511;48.622;9.230;2023-02-28T16:28:30;16.25;;;14.82;;
25653;SDS011;13511;48.622;9.230;2023-02-28T16:30:57;15.98;;;14.50;;
25653;SDS011;13511;48.622;9.230;2023-02-28T16:33:23;16.30;;;14.88;;
25653;SDS011;13511;48.622;9.230;2023-02-28T16:35:49;16.58;;;14.82;;
25653;SDS011;13511;48.622;9.230;2023-02-28T16:38:15;16.45;;;14.85;;
25653;SDS011;13511;48.622;9.230;2023-02-28T16:40:41;17.50;;;15.82;;
25653;SDS011;13511;48.622;9.230;2023-02-28T16:43:08;16.67;;;14.65;;
25653;SDS011;13511;48.622;9.230;2023-02-28T16:45:38;16.55;;;15.25;;
25653;SDS011;13511;48.622;9.230;2023-02-28T16:48:04;17.00;;;15.43;;